Time;durP1;ratioP1;P1;durP2;ratioP2;P2;SDS_P1;SDS_P2;PMS_P1;PMS_P2;Temp;Humidity;BMP_temperature;BMP_pressure;BME280_temperature;BME280_humidity;BME280_pressure;Samples;Min_cycle;Max_cycle;Signal;HPM_P1;HPM_P2
2023/09/30 00:01:10;;;;;;;23.95;8.75;;;15.10;99.90;;;;;;5018604;28;20065;-75
2023/09/30 00:03:36;;;;;;;19.15;7.18;;;14.90;99.90;;;;;;5031300;28;20034;-75
2023/09/30 00:06:02;;;;;;;19.35;7.07;;;14.90;99.90;;;;;;5017499;28;20029;-73
2023/09/30 00:08:27;;;;;;;18.15;6.72;;;14.90;99.90;;;;;;5012962;28;20056;-75
2023/09/30 00:10:54;;;;;;;22.20;7.85;;;14.90;99.90;;;;;;5030602;28;20030;-75
2023/09/30 00:13:19;;;;;;;21.75;7.28;;;14.90;99.90;;;;;;5011406;28;20052;-74
2023/09/30 00:15:45;;;;;;;24.83;7.68;;;14.90;99.90;;;;;;5013780;28;20032;-75
2023/09/30 00:18:10;;;;;;;21.52;8.02;;;14.80;99.90;;;;;;5016180;28;20081;-73
2023/09/30 00:20:36;;;;;;;22.08;7.50;;;14.70;99.90;;;;;;5013016;28;20052;-73
2023/09/30 00:23:02;;;;;;;20.30;7.90;;;14.70;99.90;;;;;;5006392;28;20037;-73
2023/09/30 00:25:27;;;;;;;20.70;7.70;;;14.60;99.90;;;;;;5011787;28;20040;-73
2023/09/30 00:27:53;;;;;;;21.25;7.68;;;14.40;99.90;;;;;;5012422;28;20072;-73
2023/09/30 00:30:18;;;;;;;20.77;7.68;;;14.20;99.90;;;;;;5011002;28;20517;-73
2023/09/30 00:32:47;;;;;;;19.15;7.35;;;14.20;99.90;;;;;;5008453;28;20034;-74
2023/09/30 00:35:13;;;;;;;20.63;6.78;;;14.20;99.90;;;;;;5010564;28;20037;-73
2023/09/30 00:37:39;;;;;;;22.75;6.75;;;14.10;99.90;;;;;;5004041;28;20030;-73
2023/09/30 00:40:06;;;;;;;21.92;7.72;;;14.10;99.90;;;;;;4996711;28;20179;-73
2023/09/30 00:42:31;;;;;;;19.23;7.25;;;14.00;99.90;;;;;;4994796;28;20139;-73
2023/09/30 00:44:57;;;;;;;18.35;7.07;;;14.00;99.90;;;;;;4997241;28;20068;-73
2023/09/30 00:47:23;;;;;;;19.67;7.40;;;14.00;99.90;;;;;;4996214;28;20257;-73
2023/09/30 00:49:50;;;;;;;19.80;7.45;;;14.00;99.90;;;;;;4998602;28;20123;-73
2023/09/30 00:52:18;;;;;;;16.35;6.43;;;14.10;99.90;;;;;;4998864;28;20035;-72
2023/09/30 00:54:44;;;;;;;20.25;6.88;;;14.10;99.90;;;;;;5002928;28;20045;-72
2023/09/30 00:57:11;;;;;;;20.98;7.28;;;14.00;99.90;;;;;;4995101;28;20040;-72
2023/09/30 00:59:37;;;;;;;20.65;6.85;;;14.00;99.90;;;;;;5004767;28;20439;-73
2023/09/30 01:02:05;;;;;;;19.73;7.30;;;14.00;99.90;;;;;;5010843;28;20033;-73
2023/09/30 01:04:31;;;;;;;20.02;6.90;;;14.10;99.90;;;;;;5002245;28;20030;-73
2023/09/30 01:06:59;;;;;;;24.23;8.60;;;14.00;99.90;;;;;;5002464;28;20079;-73
2023/09/30 01:09:25;;;;;;;18.60;6.70;;;14.10;99.90;;;;;;4997086;28;20051;-73
2023/09/30 01:11:51;;;;;;;17.85;7.38;;;14.00;99.90;;;;;;4995668;28;20034;-74
2023/09/30 01:14:30;;;;;;;21.77;7.45;;;14.00;99.90;;;;;;4995165;28;20030;-73
2023/09/30 01:16:57;;;;;;;18.95;7.53;;;13.90;99.90;;;;;;4997951;28;20033;-73
2023/09/30 01:19:26;;;;;;;18.92;6.75;;;13.80;99.90;;;;;;5003120;28;20030;-73
2023/09/30 01:21:58;;;;;;;21.45;8.13;;;13.90;99.90;;;;;;5009799;28;20502;-73
2023/09/30 01:24:25;;;;;;;19.77;6.57;;;13.70;99.90;;;;;;5008355;28;20201;-73
2023/09/30 01:26:51;;;;;;;18.85;7.47;;;13.70;99.90;;;;;;5010026;28;20422;-73
2023/09/30 01:29:17;;;;;;;17.45;7.18;;;13.50;99.90;;;;;;5008427;28;20034;-73
2023/09/30 01:31:43;;;;;;;22.75;7.68;;;13.40;99.90;;;;;;5003889;28;20030;-73
2023/09/30 01:34:10;;;;;;;17.52;6.47;;;13.50;99.90;;;;;;5002810;28;20022;-73
2023/09/30 01:36:36;;;;;;;19.77;8.00;;;13.50;99.90;;;;;;5005385;28;20018;-73
2023/09/30 01:39:02;;;;;;;22.63;8.10;;;13.50;99.90;;;;;;5000804;28;20084;-73
2023/09/30 01:41:28;;;;;;;22.85;8.10;;;13.50;99.90;;;;;;4998959;28;20513;-74
2023/09/30 01:43:54;;;;;;;22.42;7.38;;;13.60;99.90;;;;;;5009764;28;20025;-73
2023/09/30 01:46:19;;;;;;;23.88;8.20;;;13.60;99.90;;;;;;4990843;28;20030;-73
2023/09/30 01:48:45;;;;;;;19.75;7.78;;;13.60;99.90;;;;;;4992884;28;20460;-73
2023/09/30 01:51:11;;;;;;;22.85;7.68;;;13.70;99.90;;;;;;4994718;28;20026;-73
2023/09/30 01:53:38;;;;;;;23.35;8.20;;;13.60;99.90;;;;;;5001969;28;20108;-73
2023/09/30 01:56:03;;;;;;;21.38;7.85;;;13.60;99.90;;;;;;4999892;28;20430;-73
2023/09/30 01:58:29;;;;;;;21.42;7.70;;;13.60;99.90;;;;;;4998435;28;20061;-72
2023/09/30 02:01:04;;;;;;;24.30;8.77;;;13.60;99.90;;;;;;4996703;28;20925;-73
2023/09/30 02:03:30;;;;;;;15.07;7.07;;;13.50;99.90;;;;;;5016262;28;20034;-72
2023/09/30 02:05:59;;;;;;;15.43;6.20;;;13.30;99.90;;;;;;5002139;28;20033;-73
2023/09/30 02:08:25;;;;;;;18.50;6.72;;;13.20;99.90;;;;;;5000906;28;20033;-74
2023/09/30 02:10:53;;;;;;;18.20;7.35;;;13.10;99.90;;;;;;5009311;28;20476;-74
2023/09/30 02:13:19;;;;;;;22.05;7.60;;;13.00;99.90;;;;;;5011882;28;20474;-73
2023/09/30 02:15:45;;;;;;;21.45;8.00;;;13.00;99.90;;;;;;5003403;28;20026;-73
2023/09/30 02:18:11;;;;;;;21.15;7.95;;;12.90;99.90;;;;;;5007212;28;20032;-74
2023/09/30 02:20:40;;;;;;;17.90;7.20;;;12.90;99.90;;;;;;5006723;28;20056;-74
2023/09/30 02:23:12;;;;;;;20.05;6.72;;;12.90;99.90;;;;;;5003119;28;20414;-74
2023/09/30 02:25:38;;;;;;;22.08;8.10;;;12.90;99.90;;;;;;5003839;28;20092;-74
2023/09/30 02:28:06;;;;;;;16.55;6.72;;;12.80;99.90;;;;;;5005499;28;20026;-74
2023/09/30 02:30:32;;;;;;;23.50;7.17;;;12.80;99.90;;;;;;5007511;28;20030;-72
2023/09/30 02:32:58;;;;;;;19.50;7.30;;;12.90;99.90;;;;;;5000903;28;20339;-72
2023/09/30 02:35:24;;;;;;;20.35;7.78;;;12.90;99.90;;;;;;5018027;28;20037;-73
2023/09/30 02:37:51;;;;;;;22.23;7.45;;;13.00;99.90;;;;;;5006817;28;20141;-74
2023/09/30 02:40:17;;;;;;;18.92;6.50;;;13.00;99.90;;;;;;5006090;28;20045;-73
2023/09/30 02:42:43;;;;;;;20.13;6.68;;;13.00;99.90;;;;;;5014015;28;20379;-73
2023/09/30 02:45:10;;;;;;;24.13;8.00;;;12.90;99.90;;;;;;5008764;28;20088;-72
2023/09/30 02:47:37;;;;;;;23.30;7.67;;;12.90;99.90;;;;;;5008025;28;20034;-73
2023/09/30 02:50:05;;;;;;;17.40;6.50;;;12.90;99.90;;;;;;5007415;28;20113;-73
2023/09/30 02:52:31;;;;;;;18.30;6.80;;;12.50;99.90;;;;;;5005206;28;20030;-73
2023/09/30 02:54:58;;;;;;;16.63;6.60;;;12.40;99.90;;;;;;5002837;28;20337;-73
2023/09/30 02:57:24;;;;;;;21.33;7.60;;;12.40;99.90;;;;;;5003061;28;20598;-73
2023/09/30 02:59:51;;;;;;;19.67;7.60;;;12.50;99.90;;;;;;5005466;28;20517;-74
2023/09/30 03:02:18;;;;;;;17.87;6.87;;;12.40;99.90;;;;;;5003566;28;20042;-74
2023/09/30 03:04:44;;;;;;;22.45;7.13;;;12.40;99.90;;;;;;5021544;28;20269;-74
2023/09/30 03:07:10;;;;;;;21.48;8.38;;;12.40;99.90;;;;;;5006656;28;20025;-74
2023/09/30 03:09:36;;;;;;;18.58;7.18;;;12.40;99.90;;;;;;5007375;28;20442;-74
2023/09/30 03:12:04;;;;;;;20.45;7.20;;;12.50;99.90;;;;;;5021807;28;20180;-74
2023/09/30 03:14:30;;;;;;;18.30;6.88;;;12.60;99.90;;;;;;5002309;28;20054;-74
2023/09/30 03:17:01;;;;;;;14.35;6.43;;;12.60;99.90;;;;;;5005269;28;20087;-74
2023/09/30 03:19:26;;;;;;;17.63;6.93;;;12.60;99.90;;;;;;5000880;28;20034;-74
2023/09/30 03:21:52;;;;;;;21.25;7.03;;;12.50;99.90;;;;;;4997964;28;20030;-74
2023/09/30 03:24:18;;;;;;;16.73;7.00;;;12.50;99.90;;;;;;5004250;28;20026;-74
2023/09/30 03:26:43;;;;;;;17.98;7.55;;;12.50;99.90;;;;;;5005450;28;20018;-74
2023/09/30 03:29:09;;;;;;;15.98;6.10;;;12.30;99.90;;;;;;5006267;28;20076;-73
2023/09/30 03:31:36;;;;;;;14.43;6.10;;;12.10;99.90;;;;;;5004331;28;20061;-74
2023/09/30 03:34:05;;;;;;;18.35;6.20;;;12.10;99.90;;;;;;5004666;28;20072;-73
2023/09/30 03:36:30;;;;;;;21.88;7.03;;;12.20;99.90;;;;;;5005405;28;20116;-74
2023/09/30 03:39:00;;;;;;;23.20;7.07;;;12.20;99.90;;;;;;5008367;28;20026;-75
2023/09/30 03:41:25;;;;;;;19.33;6.97;;;12.30;99.90;;;;;;5019414;28;20026;-74
2023/09/30 03:43:51;;;;;;;15.95;7.00;;;12.30;99.90;;;;;;5006451;28;20110;-72
2023/09/30 03:46:17;;;;;;;19.02;7.32;;;12.30;99.90;;;;;;5005707;28;20121;-72
2023/09/30 03:48:44;;;;;;;22.48;8.45;;;12.40;99.90;;;;;;5006143;28;20030;-73
2023/09/30 03:51:14;;;;;;;21.02;6.85;;;12.30;99.90;;;;;;5019793;28;20559;-73
2023/09/30 03:53:44;;;;;;;16.40;6.55;;;12.30;99.90;;;;;;5003914;28;20157;-73
2023/09/30 03:56:13;;;;;;;18.50;6.63;;;12.30;99.90;;;;;;5003024;28;20069;-73
2023/09/30 03:58:41;;;;;;;19.60;6.78;;;12.30;99.90;;;;;;4992405;28;20429;-73
2023/09/30 04:01:07;;;;;;;18.90;7.55;;;12.40;99.90;;;;;;5002495;28;20053;-74
2023/09/30 04:03:33;;;;;;;18.98;7.00;;;12.40;99.90;;;;;;5003411;28;20038;-73
2023/09/30 04:05:59;;;;;;;17.60;7.30;;;12.40;99.90;;;;;;5002334;28;20075;-73
2023/09/30 04:08:25;;;;;;;19.25;6.30;;;12.40;99.90;;;;;;5022282;28;20124;-73
2023/09/30 04:10:51;;;;;;;23.05;6.47;;;12.40;99.90;;;;;;5006455;28;20022;-73
2023/09/30 04:13:16;;;;;;;22.35;7.43;;;12.40;99.90;;;;;;5003764;28;20035;-74
2023/09/30 04:15:44;;;;;;;18.42;6.82;;;12.40;99.90;;;;;;5002611;28;20089;-73
2023/09/30 04:18:11;;;;;;;18.30;6.35;;;12.40;99.90;;;;;;5003582;28;20112;-73
2023/09/30 04:20:39;;;;;;;12.05;5.07;;;12.30;99.90;;;;;;4998322;28;20042;-73
2023/09/30 04:23:06;;;;;;;11.63;4.43;;;12.10;99.90;;;;;;5003005;28;20030;-72
2023/09/30 04:25:32;;;;;;;7.10;3.67;;;11.80;99.90;;;;;;4996736;28;22080;-73
2023/09/30 04:28:08;;;;;;;7.85;4.32;;;11.70;99.90;;;;;;5002426;28;20025;-73
2023/09/30 04:30:37;;;;;;;9.25;4.47;;;11.50;99.90;;;;;;4998867;28;20467;-73
2023/09/30 04:33:17;;;;;;;10.65;4.80;;;11.50;99.90;;;;;;5017869;28;20022;-72
2023/09/30 04:35:52;;;;;;;14.13;5.03;;;11.60;99.90;;;;;;5015550;28;20077;-73
2023/09/30 04:38:31;;;;;;;14.88;5.22;;;11.70;99.90;;;;;;5003251;28;20064;-73
2023/09/30 04:41:13;;;;;;;11.60;4.93;;;11.80;99.90;;;;;;5003318;28;20129;-74
2023/09/30 04:43:49;;;;;;;13.18;5.70;;;11.90;99.90;;;;;;5019597;28;20498;-73
2023/09/30 04:46:22;;;;;;;13.20;5.35;;;11.90;99.90;;;;;;5019235;28;20068;-73
2023/09/30 04:49:04;;;;;;;13.65;5.82;;;11.90;99.90;;;;;;5000492;28;20430;-74
2023/09/30 04:51:33;;;;;;;15.13;5.28;;;12.00;99.90;;;;;;5001948;28;20049;-73
2023/09/30 04:54:03;;;;;;;16.88;6.07;;;12.10;99.90;;;;;;5019344;28;20044;-73
2023/09/30 04:56:53;;;;;;;17.63;6.32;;;12.10;99.90;;;;;;5016958;28;20095;-74
2023/09/30 04:59:20;;;;;;;17.52;6.03;;;12.00;99.90;;;;;;5005175;28;20037;-73
2023/09/30 05:01:46;;;;;;;17.48;6.80;;;12.00;99.90;;;;;;5001793;28;20042;-73
2023/09/30 05:04:12;;;;;;;13.95;5.50;;;11.90;99.90;;;;;;5003103;28;20373;-73
2023/09/30 05:06:43;;;;;;;12.82;5.65;;;11.80;99.90;;;;;;5007569;28;20034;-75
2023/09/30 05:09:10;;;;;;;11.50;5.47;;;11.60;99.90;;;;;;5004475;28;20037;-75
2023/09/30 05:11:39;;;;;;;12.73;5.90;;;11.60;99.90;;;;;;5003977;28;20534;-73
2023/09/30 05:14:13;;;;;;;16.83;6.50;;;11.70;99.90;;;;;;5020158;28;20033;-73
2023/09/30 05:16:53;;;;;;;15.75;6.55;;;11.70;99.90;;;;;;5002864;28;20061;-74
2023/09/30 05:19:24;;;;;;;19.80;6.57;;;11.60;99.90;;;;;;5000858;28;20037;-73
2023/09/30 05:21:56;;;;;;;15.50;5.72;;;11.70;99.90;;;;;;5016077;28;20478;-75
2023/09/30 05:24:34;;;;;;;14.00;5.25;;;11.60;99.90;;;;;;4997682;28;20036;-72
2023/09/30 05:27:11;;;;;;;14.38;5.30;;;11.70;99.90;;;;;;5016914;28;20113;-73
2023/09/30 05:32:54;;;;;;;12.88;5.80;;;11.80;99.90;;;;;;4979886;28;20038;-73
2023/09/30 05:35:28;;;;;;;15.20;5.75;;;11.80;99.90;;;;;;5016046;28;20405;-74
2023/09/30 05:37:57;;;;;;;16.60;6.00;;;11.80;99.90;;;;;;5008668;28;20614;-72
2023/09/30 05:40:42;;;;;;;16.20;6.05;;;11.80;99.90;;;;;;5008821;28;20038;-73
2023/09/30 05:43:17;;;;;;;16.20;5.57;;;11.80;99.90;;;;;;5018348;28;20631;-74
2023/09/30 05:45:49;;;;;;;15.23;5.32;;;11.80;99.90;;;;;;5014515;28;20030;-74
2023/09/30 05:48:32;;;;;;;17.90;6.65;;;11.80;99.90;;;;;;5014404;28;20084;-74
2023/09/30 05:51:07;;;;;;;13.65;6.00;;;11.80;99.90;;;;;;5026682;28;20122;-73
2023/09/30 05:53:44;;;;;;;13.18;5.10;;;11.90;99.90;;;;;;5010134;28;20038;-73
2023/09/30 05:56:18;;;;;;;13.98;5.65;;;11.80;99.90;;;;;;5008505;28;20056;-73
2023/09/30 05:58:47;;;;;;;12.60;5.43;;;11.80;99.90;;;;;;5023633;28;20626;-73
2023/09/30 06:01:22;;;;;;;9.88;5.30;;;11.90;99.90;;;;;;5009447;28;20121;-74
2023/09/30 06:03:59;;;;;;;11.93;5.65;;;11.80;99.90;;;;;;5025025;28;20034;-73
2023/09/30 06:06:29;;;;;;;13.50;5.50;;;11.80;99.90;;;;;;5007002;28;20034;-73
2023/09/30 06:09:09;;;;;;;;;;;;;;;;;;;;;
2023/09/30 06:11:41;;;;;;;13.65;5.65;;;12.00;99.90;;;;;;5011027;28;20022;-74
2023/09/30 06:14:08;;;;;;;15.75;5.78;;;12.10;99.90;;;;;;5012934;28;20033;-74
2023/09/30 06:16:34;;;;;;;15.73;6.20;;;12.10;99.90;;;;;;5010148;28;20026;-74
2023/09/30 06:19:00;;;;;;;16.30;6.03;;;12.20;99.90;;;;;;5015347;28;20022;-75
2023/09/30 06:21:28;;;;;;;14.65;6.30;;;12.20;99.90;;;;;;5012162;28;20367;-75
2023/09/30 06:23:55;;;;;;;16.40;6.13;;;12.30;99.90;;;;;;5015843;28;20093;-75
2023/09/30 06:26:21;;;;;;;17.30;6.32;;;12.30;99.90;;;;;;5017257;28;20031;-74
2023/09/30 06:28:47;;;;;;;15.27;5.53;;;12.40;99.90;;;;;;5009692;28;20034;-75
2023/09/30 06:31:15;;;;;;;20.75;6.05;;;12.50;99.90;;;;;;5012967;28;20109;-74
2023/09/30 06:33:41;;;;;;;17.73;7.18;;;12.50;99.90;;;;;;5024228;28;20042;-75
2023/09/30 06:36:13;;;;;;;14.70;5.60;;;12.60;99.90;;;;;;5010871;28;20136;-75
2023/09/30 06:38:41;;;;;;;20.48;6.53;;;12.60;99.90;;;;;;5005569;28;20637;-74
2023/09/30 06:41:07;;;;;;;15.10;6.00;;;12.60;99.90;;;;;;5021908;28;20038;-74
2023/09/30 06:43:35;;;;;;;18.52;6.72;;;12.70;99.90;;;;;;5008519;28;20038;-74
2023/09/30 06:46:09;;;;;;;13.77;5.72;;;12.80;99.90;;;;;;5010174;28;20031;-74
2023/09/30 06:48:35;;;;;;;19.38;6.95;;;12.70;99.90;;;;;;5003661;28;20025;-73
2023/09/30 06:51:01;;;;;;;19.63;6.68;;;12.70;99.90;;;;;;5000699;28;20045;-74
2023/09/30 06:53:27;;;;;;;14.40;6.38;;;12.70;99.90;;;;;;5023358;28;20157;-74
2023/09/30 06:55:53;;;;;;;15.40;6.50;;;12.80;99.90;;;;;;5006821;28;20065;-74
2023/09/30 06:58:22;;;;;;;16.88;6.45;;;12.80;99.90;;;;;;5010092;28;20030;-74
2023/09/30 07:00:55;;;;;;;16.83;6.97;;;12.80;99.90;;;;;;5012391;28;20045;-74
2023/09/30 07:03:20;;;;;;;18.52;6.68;;;12.90;99.90;;;;;;5011451;28;20045;-75
2023/09/30 07:05:49;;;;;;;19.15;6.93;;;13.10;99.90;;;;;;5010541;28;20027;-74
2023/09/30 07:08:21;;;;;;;20.13;7.10;;;13.20;99.90;;;;;;5009347;28;20594;-74
2023/09/30 07:10:52;;;;;;;15.48;6.57;;;13.30;99.90;;;;;;5026463;28;20074;-74
2023/09/30 07:13:21;;;;;;;15.95;6.57;;;13.40;99.90;;;;;;5024053;28;20128;-74
2023/09/30 07:15:47;;;;;;;17.42;6.40;;;13.40;99.90;;;;;;5026727;28;20555;-75
2023/09/30 07:18:13;;;;;;;17.00;6.47;;;13.50;99.90;;;;;;5010244;28;20557;-75
2023/09/30 07:20:39;;;;;;;13.63;6.65;;;13.50;99.90;;;;;;5010727;28;20030;-74
2023/09/30 07:23:14;;;;;;;14.68;6.50;;;13.60;99.90;;;;;;5028599;28;20041;-73
2023/09/30 07:25:40;;;;;;;18.20;6.43;;;13.70;99.90;;;;;;5032385;28;20010;-74
2023/09/30 07:28:11;;;;;;;16.92;6.25;;;13.90;99.90;;;;;;5030922;28;20060;-78
2023/09/30 07:30:37;;;;;;;14.38;5.68;;;14.00;99.90;;;;;;5030918;28;20030;-74
2023/09/30 07:33:03;;;;;;;12.50;5.40;;;14.10;99.90;;;;;;5029645;28;20225;-73
2023/09/30 07:35:28;;;;;;;11.65;5.18;;;14.20;99.90;;;;;;5027483;28;20045;-78
2023/09/30 07:37:54;;;;;;;14.63;5.32;;;14.30;99.90;;;;;;5016858;28;20022;-82
2023/09/30 07:40:21;;;;;;;13.75;5.75;;;14.40;99.90;;;;;;5018780;28;20033;-75
2023/09/30 07:42:47;;;;;;;13.02;5.20;;;14.50;99.90;;;;;;5019122;28;20034;-76
2023/09/30 07:45:16;;;;;;;13.05;5.00;;;14.70;99.90;;;;;;5029111;28;20022;-75
2023/09/30 07:47:46;;;;;;;12.80;5.03;;;14.80;99.90;;;;;;5031465;28;20022;-76
2023/09/30 07:50:12;;;;;;;11.35;4.43;;;15.00;99.90;;;;;;5021446;28;20014;-76
2023/09/30 07:52:42;;;;;;;10.40;4.47;;;15.20;99.90;;;;;;5019813;28;20282;-75
2023/09/30 07:55:09;;;;;;;8.68;3.67;;;15.30;99.90;;;;;;5017982;28;20130;-75
2023/09/30 07:57:35;;;;;;;6.55;3.20;;;15.30;99.90;;;;;;5016410;28;20037;-76
2023/09/30 08:00:01;;;;;;;6.07;3.03;;;15.40;99.90;;;;;;5016119;28;20068;-77
2023/09/30 08:02:33;;;;;;;7.25;3.08;;;15.40;99.90;;;;;;5015558;28;20098;-76
2023/09/30 08:05:02;;;;;;;5.78;3.10;;;15.40;99.90;;;;;;5015697;28;20090;-75
2023/09/30 08:07:27;;;;;;;6.88;3.60;;;15.40;99.90;;;;;;5014280;28;20048;-73
2023/09/30 08:09:53;;;;;;;6.93;3.20;;;15.60;99.90;;;;;;5018871;28;20025;-75
2023/09/30 08:12:21;;;;;;;9.55;3.20;;;15.60;99.90;;;;;;5022576;28;20076;-74
2023/09/30 08:14:46;;;;;;;7.68;2.85;;;15.70;99.90;;;;;;5016833;28;20666;-74
2023/09/30 08:17:17;;;;;;;6.78;2.83;;;15.80;99.90;;;;;;5013580;28;20065;-76
2023/09/30 08:19:43;;;;;;;10.48;3.65;;;15.80;99.90;;;;;;5012638;28;20041;-78
2023/09/30 08:22:09;;;;;;;5.15;2.90;;;15.80;99.90;;;;;;5013525;28;20056;-74
2023/09/30 08:24:35;;;;;;;6.68;2.92;;;15.80;99.90;;;;;;5019950;28;20037;-75
2023/09/30 08:27:01;;;;;;;8.90;3.15;;;15.80;99.90;;;;;;5014131;28;20018;-74
2023/09/30 08:29:27;;;;;;;6.50;3.00;;;15.80;99.90;;;;;;5017502;28;20156;-76
2023/09/30 08:31:52;;;;;;;6.50;2.97;;;15.90;99.90;;;;;;5029834;28;20054;-76
2023/09/30 08:34:21;;;;;;;6.38;3.13;;;16.00;99.90;;;;;;5028752;28;20022;-73
2023/09/30 08:36:46;;;;;;;;;;;16.20;99.90;;;;;;5011854;28;20479;-77
2023/09/30 08:39:12;;;;;;;5.20;2.92;;;16.30;99.90;;;;;;5018027;28;19988;-73
2023/09/30 08:41:44;;;;;;;7.65;3.25;;;16.40;99.90;;;;;;5013945;28;20434;-74
2023/09/30 08:44:14;;;;;;;8.68;3.20;;;16.50;99.90;;;;;;5011296;28;20022;-75
2023/09/30 08:46:41;;;;;;;6.45;3.17;;;16.50;99.90;;;;;;5021422;28;20025;-74
2023/09/30 08:49:08;;;;;;;6.53;3.35;;;16.50;99.90;;;;;;5009997;28;20030;-76
2023/09/30 08:51:35;;;;;;;8.75;3.53;;;16.60;99.90;;;;;;5009045;28;20030;-74
2023/09/30 08:54:03;;;;;;;6.45;3.30;;;16.70;99.90;;;;;;5006874;28;20037;-74
2023/09/30 08:56:34;;;;;;;8.48;3.35;;;16.80;99.90;;;;;;5008618;28;20033;-75
2023/09/30 08:59:01;;;;;;;5.53;3.15;;;16.80;99.90;;;;;;4995282;28;20065;-75
2023/09/30 09:01:29;;;;;;;7.05;2.90;;;16.80;99.90;;;;;;4991931;28;20038;-74
2023/09/30 09:03:55;;;;;;;8.10;3.23;;;16.70;99.90;;;;;;4993959;28;20383;-75
2023/09/30 09:06:22;;;;;;;7.95;3.50;;;16.80;99.90;;;;;;4994789;28;20022;-74
2023/09/30 09:08:49;;;;;;;9.85;3.17;;;17.00;99.90;;;;;;5008244;28;20165;-75
2023/09/30 09:11:15;;;;;;;5.68;2.95;;;17.10;99.90;;;;;;5011654;28;20104;-76
2023/09/30 09:13:56;;;;;;;7.57;3.60;;;17.40;99.90;;;;;;5010444;28;20034;-75
2023/09/30 09:16:31;;;;;;;6.22;3.22;;;17.50;99.90;;;;;;5006888;28;20021;-75
2023/09/30 09:18:56;;;;;;;6.53;2.97;;;17.50;99.90;;;;;;5022936;28;20030;-75
2023/09/30 09:21:23;;;;;;;7.18;2.78;;;17.40;99.90;;;;;;5006666;28;20191;-74
2023/09/30 09:23:51;;;;;;;6.00;3.47;;;17.20;99.90;;;;;;5003876;28;20494;-74
2023/09/30 09:26:31;;;;;;;7.13;2.90;;;17.20;99.90;;;;;;5006449;28;20034;-76
2023/09/30 09:29:06;;;;;;;5.85;2.97;;;17.20;99.90;;;;;;5004951;28;20060;-74
2023/09/30 09:31:39;;;;;;;6.18;2.85;;;17.50;99.90;;;;;;4991812;28;20058;-74
2023/09/30 09:34:14;;;;;;;9.50;3.30;;;17.60;99.90;;;;;;4993646;28;20033;-76
2023/09/30 09:36:42;;;;;;;7.05;3.47;;;17.80;99.90;;;;;;4997695;28;20037;-75
2023/09/30 09:39:07;;;;;;;5.63;3.10;;;17.90;99.90;;;;;;5012366;28;20038;-76
2023/09/30 09:41:49;;;;;;;8.20;3.58;;;18.10;99.90;;;;;;5019626;28;20529;-75
2023/09/30 09:44:16;;;;;;;6.85;3.28;;;18.30;99.90;;;;;;5010396;28;20053;-74
2023/09/30 09:46:44;;;;;;;7.30;3.55;;;18.30;99.90;;;;;;5011406;28;20034;-75
2023/09/30 09:49:11;;;;;;;9.38;3.63;;;18.20;99.90;;;;;;5008034;28;20037;-75
2023/09/30 09:51:37;;;;;;;14.23;5.05;;;18.20;99.90;;;;;;5009614;28;22386;-75
2023/09/30 09:54:07;;;;;;;13.07;4.30;;;18.20;99.90;;;;;;5013029;28;20045;-76
2023/09/30 09:56:39;;;;;;;12.70;4.50;;;18.10;99.90;;;;;;5008548;28;20022;-75
2023/09/30 09:59:06;;;;;;;10.35;4.47;;;18.10;99.90;;;;;;5024806;28;20058;-75
2023/09/30 10:01:34;;;;;;;10.80;4.38;;;18.20;99.90;;;;;;5007125;28;20034;-75
2023/09/30 10:04:05;;;;;;;8.10;4.00;;;18.40;99.90;;;;;;5008133;28;20491;-75
2023/09/30 10:06:38;;;;;;;7.75;3.50;;;18.50;99.90;;;;;;5007456;28;20034;-76
2023/09/30 10:09:07;;;;;;;8.18;3.85;;;18.40;99.90;;;;;;5011553;28;20038;-74
2023/09/30 10:11:33;;;;;;;7.85;3.70;;;18.50;99.90;;;;;;5005506;28;20700;-78
2023/09/30 10:14:03;;;;;;;6.53;3.13;;;18.30;99.90;;;;;;5009730;28;20049;-76
2023/09/30 10:16:41;;;;;;;7.45;3.17;;;18.50;99.90;;;;;;5011775;28;20030;-82
2023/09/30 10:19:24;;;;;;;7.53;3.35;;;18.50;99.90;;;;;;5012105;28;20033;-78
2023/09/30 10:22:19;;;;;;;8.10;3.40;;;18.50;99.90;;;;;;5026575;28;20107;-76
2023/09/30 10:24:46;;;;;;;7.82;3.95;;;18.70;99.90;;;;;;5009623;28;20054;-77
2023/09/30 10:27:37;;;;;;;9.47;3.70;;;19.00;99.90;;;;;;5006370;28;20022;-78
2023/09/30 10:30:09;;;;;;;6.88;3.17;;;19.20;99.90;;;;;;5010709;28;20191;-77
2023/09/30 10:32:59;;;;;;;7.35;3.28;;;19.20;99.90;;;;;;5002196;28;20056;-78
2023/09/30 10:35:43;;;;;;;8.32;3.38;;;19.20;99.90;;;;;;5020482;28;20042;-78
2023/09/30 10:38:24;;;;;;;8.23;3.90;;;19.50;99.90;;;;;;5013974;28;20314;-79
2023/09/30 10:40:55;;;;;;;9.00;4.13;;;19.40;99.90;;;;;;5018822;28;20049;-79
2023/09/30 10:43:41;;;;;;;23.70;7.75;;;19.70;99.90;;;;;;5014494;28;20140;-79
2023/09/30 10:47:21;;;;;;;24.60;4.57;;;19.50;99.90;;;;;;5111394;27;20926;-36
2023/09/30 10:49:47;;;;;;;11.05;3.97;;;18.90;99.90;;;;;;5094081;28;20024;-37
2023/09/30 10:52:22;;;;;;;10.40;3.90;;;18.90;99.90;;;;;;5088554;28;20036;-37
2023/09/30 10:54:49;;;;;;;7.55;3.72;;;18.80;99.90;;;;;;5093418;28;20031;-36
2023/09/30 10:57:29;;;;;;;8.75;3.65;;;19.00;99.90;;;;;;5091680;28;20043;-35
2023/09/30 11:00:10;;;;;;;9.82;3.95;;;18.70;99.90;;;;;;5094506;28;20036;-37
2023/09/30 11:02:48;;;;;;;8.02;3.90;;;18.80;99.90;;;;;;5072305;27;20060;-31
2023/09/30 11:05:14;;;;;;;10.30;4.35;;;18.80;99.90;;;;;;5075848;28;20511;-32
2023/09/30 11:07:42;;;;;;;8.80;3.90;;;18.70;99.90;;;;;;5068025;28;20017;-34
2023/09/30 11:10:08;;;;;;;8.40;3.60;;;18.80;99.90;;;;;;5074287;28;20077;-36
2023/09/30 11:12:34;;;;;;;8.30;3.92;;;18.60;99.90;;;;;;5075353;28;20139;-40
2023/09/30 11:15:01;;;;;;;11.77;4.15;;;18.80;99.90;;;;;;5077099;28;20620;-40
2023/09/30 11:17:27;;;;;;;11.23;4.40;;;18.60;99.90;;;;;;5072958;28;20050;-39
2023/09/30 11:19:53;;;;;;;9.57;3.88;;;18.60;99.90;;;;;;5073417;28;22683;-40
2023/09/30 11:22:19;;;;;;;7.80;3.97;;;18.50;99.90;;;;;;5073239;28;20023;-30
2023/09/30 11:24:46;;;;;;;10.27;4.78;;;18.70;99.90;;;;;;5074184;28;20062;-32
2023/09/30 11:27:11;;;;;;;9.65;4.20;;;18.70;99.90;;;;;;5072569;28;20451;-31
2023/09/30 11:29:37;;;;;;;10.05;4.32;;;18.60;99.90;;;;;;5076742;28;20036;-32
2023/09/30 11:32:03;;;;;;;10.18;3.78;;;18.90;99.90;;;;;;5079695;27;20089;-34
2023/09/30 11:34:34;;;;;;;9.02;4.30;;;19.00;99.90;;;;;;5078623;28;20026;-30
2023/09/30 11:37:01;;;;;;;9.80;4.38;;;19.20;99.90;;;;;;5074172;28;20039;-31
2023/09/30 11:39:28;;;;;;;10.32;5.00;;;19.30;99.90;;;;;;5075190;28;20040;-33
2023/09/30 11:41:56;;;;;;;10.75;4.50;;;19.40;99.90;;;;;;5075589;28;20082;-32
2023/09/30 11:44:22;;;;;;;12.63;4.57;;;19.50;99.90;;;;;;5073635;28;20041;-31
2023/09/30 11:46:52;;;;;;;9.70;4.65;;;19.70;99.90;;;;;;5071557;28;20055;-32
2023/09/30 11:49:53;;;;;;;8.25;4.47;;;19.60;99.90;;;;;;5075544;28;20021;-32
2023/09/30 11:52:26;;;;;;;10.10;4.63;;;19.50;99.90;;;;;;5061222;28;20036;-33
2023/09/30 11:54:53;;;;;;;10.80;4.15;;;19.40;99.90;;;;;;5071573;28;20482;-31
2023/09/30 11:57:19;;;;;;;8.23;4.03;;;19.50;99.90;;;;;;5063283;28;20453;-30
2023/09/30 11:59:45;;;;;;;9.32;4.28;;;19.40;99.90;;;;;;5058164;28;20036;-32
2023/09/30 12:02:15;;;;;;;9.85;3.85;;;19.40;99.90;;;;;;5058014;28;20905;-31
2023/09/30 12:04:45;;;;;;;11.57;4.22;;;19.50;99.90;;;;;;5052742;28;20088;-31
2023/09/30 12:07:11;;;;;;;8.82;4.22;;;19.50;99.90;;;;;;5045136;28;20044;-32
2023/09/30 12:09:39;;;;;;;10.05;4.20;;;19.60;99.90;;;;;;5048342;28;20043;-33
2023/09/30 12:12:05;;;;;;;11.45;4.43;;;19.60;99.90;;;;;;5051120;28;20086;-33
2023/09/30 12:14:31;;;;;;;11.85;4.65;;;19.50;99.90;;;;;;5057451;28;20044;-31
2023/09/30 12:16:57;;;;;;;10.43;4.20;;;19.60;99.90;;;;;;5057789;28;20025;-31
2023/09/30 12:19:22;;;;;;;9.25;4.05;;;19.50;99.90;;;;;;5075053;28;20033;-31
2023/09/30 12:21:48;;;;;;;11.23;4.78;;;19.30;99.90;;;;;;5055360;28;20058;-32
2023/09/30 12:24:19;;;;;;;11.18;4.35;;;19.30;99.90;;;;;;5060498;28;20465;-33
2023/09/30 12:26:48;;;;;;;9.20;4.13;;;19.40;99.90;;;;;;5054187;28;20098;-32
2023/09/30 12:29:19;;;;;;;12.10;4.35;;;19.40;99.90;;;;;;5056721;28;20032;-36
2023/09/30 12:31:45;;;;;;;11.05;5.07;;;19.20;99.90;;;;;;5053535;28;20460;-32
2023/09/30 12:34:12;;;;;;;11.15;4.32;;;19.20;99.90;;;;;;5060512;28;20032;-37
2023/09/30 12:36:38;;;;;;;10.80;4.85;;;19.20;99.90;;;;;;5059563;28;20035;-32
2023/09/30 12:39:10;;;;;;;11.30;4.25;;;19.20;99.90;;;;;;5061725;28;20115;-34
2023/09/30 12:41:41;;;;;;;9.60;4.15;;;19.40;99.90;;;;;;5053852;28;20041;-38
2023/09/30 12:44:10;;;;;;;9.75;4.30;;;19.20;99.90;;;;;;5056287;28;20040;-40
2023/09/30 12:46:39;;;;;;;10.65;4.22;;;19.10;99.90;;;;;;5059187;28;20531;-38
2023/09/30 12:49:05;;;;;;;10.70;3.97;;;19.00;99.90;;;;;;5052766;28;20028;-37
2023/09/30 12:51:31;;;;;;;10.75;4.35;;;19.10;99.90;;;;;;5055713;28;20055;-39
2023/09/30 12:53:57;;;;;;;10.95;4.85;;;19.10;99.90;;;;;;5063576;28;20060;-40